sensor_id;sensor_type;location;lat;lon;timestamp;P1;durP1;ratioP1;P2;durP2;ratioP2
4529;SDS011;2277;51.626;7.516;2023-08-06T00:00:09;9.30;;;5.30;;
4529;SDS011;2277;51.626;7.516;2023-08-06T00:02:35;8.73;;;5.80;;
4529;SDS011;2277;51.626;7.516;2023-08-06T00:05:01;9.03;;;6.60;;
4529;SDS011;2277;51.626;7.516;2023-08-06T00:07:27;7.37;;;4.53;;
4529;SDS011;2277;51.626;7.516;2023-08-06T00:09:53;8.83;;;5.37;;
4529;SDS011;2277;51.626;7.516;2023-08-06T00:12:18;5.40;;;4.50;;
4529;SDS011;2277;51.626;7.516;2023-08-06T00:14:44;5.17;;;4.43;;
4529;SDS011;2277;51.626;7.516;2023-08-06T00:17:10;10.70;;;4.87;;
4529;SDS011;2277;51.626;7.516;2023-08-06T00:19:35;4.73;;;4.10;;
4529;SDS011;2277;51.626;7.516;2023-08-06T00:22:01;9.03;;;4.17;;
4529;SDS011;2277;51.626;7.516;2023-08-06T00:24:27;5.43;;;4.40;;
4529;SDS011;2277;51.626;7.516;2023-08-06T00:26:52;4.20;;;3.80;;
4529;SDS011;2277;51.626;7.516;2023-08-06T00:29:18;5.73;;;5.13;;
4529;SDS011;2277;51.626;7.516;2023-08-06T00:31:44;5.17;;;4.67;;
4529;SDS011;2277;51.626;7.516;2023-08-06T00:34:09;5.90;;;4.37;;
4529;SDS011;2277;51.626;7.516;2023-08-06T00:36:35;9.33;;;4.10;;
4529;SDS011;2277;51.626;7.516;2023-08-06T00:39:00;3.93;;;3.63;;
4529;SDS011;2277;51.626;7.516;2023-08-06T00:41:26;5.37;;;3.93;;
4529;SDS011;2277;51.626;7.516;2023-08-06T00:43:52;10.53;;;4.23;;
4529;SDS011;2277;51.626;7.516;2023-08-06T00:46:17;4.10;;;3.20;;
4529;SDS011;2277;51.626;7.516;2023-08-06T00:48:43;5.57;;;3.50;;
4529;SDS011;2277;51.626;7.516;2023-08-06T00:51:09;3.70;;;3.30;;
4529;SDS011;2277;51.626;7.516;2023-08-06T00:53:37;3.53;;;3.03;;
4529;SDS011;2277;51.626;7.516;2023-08-06T00:56:04;5.00;;;3.30;;
4529;SDS011;2277;51.626;7.516;2023-08-06T00:58:30;4.67;;;3.90;;
4529;SDS011;2277;51.626;7.516;2023-08-06T01:00:56;3.07;;;2.87;;
4529;SDS011;2277;51.626;7.516;2023-08-06T01:03:22;5.60;;;3.23;;
4529;SDS011;2277;51.626;7.516;2023-08-06T01:05:48;4.40;;;3.50;;
4529;SDS011;2277;51.626;7.516;2023-08-06T01:13:43;4.83;;;4.20;;
4529;SDS011;2277;51.626;7.516;2023-08-06T01:16:18;3.60;;;2.80;;
4529;SDS011;2277;51.626;7.516;2023-08-06T01:18:46;4.37;;;3.97;;
4529;SDS011;2277;51.626;7.516;2023-08-06T01:21:14;4.30;;;3.20;;
4529;SDS011;2277;51.626;7.516;2023-08-06T01:23:41;8.10;;;3.60;;
4529;SDS011;2277;51.626;7.516;2023-08-06T01:28:40;15.07;;;3.20;;
4529;SDS011;2277;51.626;7.516;2023-08-06T01:31:34;4.43;;;3.70;;
4529;SDS011;2277;51.626;7.516;2023-08-06T01:34:02;6.80;;;3.83;;
4529;SDS011;2277;51.626;7.516;2023-08-06T01:36:30;3.53;;;2.60;;
4529;SDS011;2277;51.626;7.516;2023-08-06T01:38:56;4.37;;;3.97;;
4529;SDS011;2277;51.626;7.516;2023-08-06T01:41:22;5.03;;;3.10;;
4529;SDS011;2277;51.626;7.516;2023-08-06T01:43:48;4.40;;;3.67;;
4529;SDS011;2277;51.626;7.516;2023-08-06T01:46:13;3.97;;;3.33;;
4529;SDS011;2277;51.626;7.516;2023-08-06T01:48:39;4.50;;;3.70;;
4529;SDS011;2277;51.626;7.516;2023-08-06T01:51:05;4.87;;;3.23;;
4529;SDS011;2277;51.626;7.516;2023-08-06T01:53:31;3.50;;;3.20;;
4529;SDS011;2277;51.626;7.516;2023-08-06T01:55:57;7.10;;;3.47;;
4529;SDS011;2277;51.626;7.516;2023-08-06T01:58:22;5.23;;;2.90;;
4529;SDS011;2277;51.626;7.516;2023-08-06T02:00:48;4.40;;;3.23;;
4529;SDS011;2277;51.626;7.516;2023-08-06T02:03:14;5.43;;;4.00;;
4529;SDS011;2277;51.626;7.516;2023-08-06T02:05:40;5.30;;;2.93;;
4529;SDS011;2277;51.626;7.516;2023-08-06T02:08:05;4.77;;;3.07;;
4529;SDS011;2277;51.626;7.516;2023-08-06T02:10:31;4.83;;;3.00;;
4529;SDS011;2277;51.626;7.516;2023-08-06T02:12:57;7.77;;;3.63;;
4529;SDS011;2277;51.626;7.516;2023-08-06T02:15:22;9.23;;;4.33;;
4529;SDS011;2277;51.626;7.516;2023-08-06T02:17:48;6.10;;;3.47;;
4529;SDS011;2277;51.626;7.516;2023-08-06T02:20:13;3.63;;;2.90;;
4529;SDS011;2277;51.626;7.516;2023-08-06T02:22:39;4.13;;;2.50;;
4529;SDS011;2277;51.626;7.516;2023-08-06T02:25:05;4.00;;;3.50;;
4529;SDS011;2277;51.626;7.516;2023-08-06T02:27:30;4.83;;;2.90;;
4529;SDS011;2277;51.626;7.516;2023-08-06T02:29:56;4.20;;;2.70;;
4529;SDS011;2277;51.626;7.516;2023-08-06T02:32:21;5.10;;;3.50;;
4529;SDS011;2277;51.626;7.516;2023-08-06T02:34:47;6.27;;;2.83;;
4529;SDS011;2277;51.626;7.516;2023-08-06T02:37:13;2.30;;;2.10;;
4529;SDS011;2277;51.626;7.516;2023-08-06T02:39:38;4.30;;;2.93;;
4529;SDS011;2277;51.626;7.516;2023-08-06T02:42:07;3.87;;;2.17;;
4529;SDS011;2277;51.626;7.516;2023-08-06T02:44:33;7.73;;;3.97;;
4529;SDS011;2277;51.626;7.516;2023-08-06T02:46:59;2.70;;;2.27;;
4529;SDS011;2277;51.626;7.516;2023-08-06T02:49:25;4.50;;;2.53;;
4529;SDS011;2277;51.626;7.516;2023-08-06T02:51:50;2.43;;;2.23;;
4529;SDS011;2277;51.626;7.516;2023-08-06T02:54:17;3.43;;;3.13;;
4529;SDS011;2277;51.626;7.516;2023-08-06T02:56:43;9.33;;;2.80;;
4529;SDS011;2277;51.626;7.516;2023-08-06T02:59:12;4.30;;;3.37;;
4529;SDS011;2277;51.626;7.516;2023-08-06T03:01:38;2.67;;;2.47;;
4529;SDS011;2277;51.626;7.516;2023-08-06T03:04:04;3.73;;;2.50;;
4529;SDS011;2277;51.626;7.516;2023-08-06T03:06:30;4.30;;;3.63;;
4529;SDS011;2277;51.626;7.516;2023-08-06T03:08:56;2.87;;;2.40;;
4529;SDS011;2277;51.626;7.516;2023-08-06T03:11:21;4.17;;;2.57;;
4529;SDS011;2277;51.626;7.516;2023-08-06T03:13:47;4.30;;;2.80;;
4529;SDS011;2277;51.626;7.516;2023-08-06T03:16:13;2.60;;;2.40;;
4529;SDS011;2277;51.626;7.516;2023-08-06T03:18:39;4.00;;;2.30;;
4529;SDS011;2277;51.626;7.516;2023-08-06T03:21:04;6.93;;;2.30;;
4529;SDS011;2277;51.626;7.516;2023-08-06T03:23:30;3.20;;;2.53;;
4529;SDS011;2277;51.626;7.516;2023-08-06T03:25:56;2.87;;;2.30;;
4529;SDS011;2277;51.626;7.516;2023-08-06T03:28:21;3.23;;;2.83;;
4529;SDS011;2277;51.626;7.516;2023-08-06T03:30:47;3.00;;;2.17;;
4529;SDS011;2277;51.626;7.516;2023-08-06T03:33:13;4.13;;;2.20;;
4529;SDS011;2277;51.626;7.516;2023-08-06T03:35:39;2.90;;;2.33;;
4529;SDS011;2277;51.626;7.516;2023-08-06T03:38:04;4.70;;;2.50;;
4529;SDS011;2277;51.626;7.516;2023-08-06T03:40:30;4.57;;;2.20;;
4529;SDS011;2277;51.626;7.516;2023-08-06T03:42:56;4.30;;;3.10;;
4529;SDS011;2277;51.626;7.516;2023-08-06T03:45:21;3.20;;;2.90;;
4529;SDS011;2277;51.626;7.516;2023-08-06T03:47:47;2.17;;;1.90;;
4529;SDS011;2277;51.626;7.516;2023-08-06T03:50:13;2.60;;;2.20;;
4529;SDS011;2277;51.626;7.516;2023-08-06T03:52:38;5.17;;;2.50;;
4529;SDS011;2277;51.626;7.516;2023-08-06T03:55:04;3.00;;;2.53;;
4529;SDS011;2277;51.626;7.516;2023-08-06T03:57:29;3.00;;;2.67;;
4529;SDS011;2277;51.626;7.516;2023-08-06T03:59:55;4.73;;;2.53;;
4529;SDS011;2277;51.626;7.516;2023-08-06T04:02:21;3.37;;;2.80;;
4529;SDS011;2277;51.626;7.516;2023-08-06T04:04:47;4.20;;;2.97;;
4529;SDS011;2277;51.626;7.516;2023-08-06T04:07:12;3.77;;;2.60;;
4529;SDS011;2277;51.626;7.516;2023-08-06T04:12:23;4.07;;;2.53;;
4529;SDS011;2277;51.626;7.516;2023-08-06T04:14:49;3.10;;;2.43;;
4529;SDS011;2277;51.626;7.516;2023-08-06T04:17:16;4.10;;;3.00;;
4529;SDS011;2277;51.626;7.516;2023-08-06T04:19:45;4.17;;;3.07;;
4529;SDS011;2277;51.626;7.516;2023-08-06T04:22:11;3.37;;;2.77;;
4529;SDS011;2277;51.626;7.516;2023-08-06T04:24:37;3.43;;;2.73;;
4529;SDS011;2277;51.626;7.516;2023-08-06T04:27:02;3.37;;;3.07;;
4529;SDS011;2277;51.626;7.516;2023-08-06T04:29:28;3.60;;;2.73;;
4529;SDS011;2277;51.626;7.516;2023-08-06T04:31:54;3.67;;;2.50;;
4529;SDS011;2277;51.626;7.516;2023-08-06T04:34:19;3.40;;;3.10;;
4529;SDS011;2277;51.626;7.516;2023-08-06T04:36:45;5.37;;;3.60;;
4529;SDS011;2277;51.626;7.516;2023-08-06T04:39:10;4.20;;;3.83;;
4529;SDS011;2277;51.626;7.516;2023-08-06T04:41:36;4.83;;;3.60;;
4529;SDS011;2277;51.626;7.516;2023-08-06T04:44:01;4.33;;;3.50;;
4529;SDS011;2277;51.626;7.516;2023-08-06T04:46:28;4.77;;;3.60;;
4529;SDS011;2277;51.626;7.516;2023-08-06T04:48:54;5.53;;;3.20;;
4529;SDS011;2277;51.626;7.516;2023-08-06T04:51:19;4.00;;;2.97;;
4529;SDS011;2277;51.626;7.516;2023-08-06T04:53:45;4.70;;;3.23;;
4529;SDS011;2277;51.626;7.516;2023-08-06T04:56:10;3.70;;;2.70;;
4529;SDS011;2277;51.626;7.516;2023-08-06T04:58:36;5.27;;;3.57;;
4529;SDS011;2277;51.626;7.516;2023-08-06T05:01:01;3.90;;;3.10;;
4529;SDS011;2277;51.626;7.516;2023-08-06T05:03:27;8.27;;;3.60;;
4529;SDS011;2277;51.626;7.516;2023-08-06T05:05:52;2.40;;;1.90;;
4529;SDS011;2277;51.626;7.516;2023-08-06T05:08:18;4.00;;;3.60;;
4529;SDS011;2277;51.626;7.516;2023-08-06T05:10:44;3.87;;;3.07;;
4529;SDS011;2277;51.626;7.516;2023-08-06T05:13:10;3.50;;;2.53;;
4529;SDS011;2277;51.626;7.516;2023-08-06T05:15:36;6.43;;;3.87;;
4529;SDS011;2277;51.626;7.516;2023-08-06T05:18:02;4.43;;;3.33;;
4529;SDS011;2277;51.626;7.516;2023-08-06T05:20:27;4.90;;;3.07;;
4529;SDS011;2277;51.626;7.516;2023-08-06T05:22:53;4.97;;;3.40;;
4529;SDS011;2277;51.626;7.516;2023-08-06T05:25:20;5.70;;;3.10;;
4529;SDS011;2277;51.626;7.516;2023-08-06T05:27:45;4.10;;;3.40;;
4529;SDS011;2277;51.626;7.516;2023-08-06T05:30:11;4.47;;;4.00;;
4529;SDS011;2277;51.626;7.516;2023-08-06T05:32:37;3.97;;;2.83;;
4529;SDS011;2277;51.626;7.516;2023-08-06T05:35:02;5.63;;;3.27;;
4529;SDS011;2277;51.626;7.516;2023-08-06T05:37:28;4.17;;;2.83;;
4529;SDS011;2277;51.626;7.516;2023-08-06T05:39:54;4.40;;;3.60;;
4529;SDS011;2277;51.626;7.516;2023-08-06T05:42:19;5.00;;;4.30;;
4529;SDS011;2277;51.626;7.516;2023-08-06T05:44:45;4.67;;;2.73;;
4529;SDS011;2277;51.626;7.516;2023-08-06T05:47:10;4.93;;;3.30;;
4529;SDS011;2277;51.626;7.516;2023-08-06T05:49:36;4.73;;;3.60;;
4529;SDS011;2277;51.626;7.516;2023-08-06T05:52:02;6.43;;;2.87;;
4529;SDS011;2277;51.626;7.516;2023-08-06T05:54:31;4.90;;;4.23;;
4529;SDS011;2277;51.626;7.516;2023-08-06T05:56:56;4.13;;;3.80;;
4529;SDS011;2277;51.626;7.516;2023-08-06T05:59:22;3.73;;;3.00;;
4529;SDS011;2277;51.626;7.516;2023-08-06T06:01:47;3.97;;;3.50;;
4529;SDS011;2277;51.626;7.516;2023-08-06T06:04:13;5.60;;;3.47;;
4529;SDS011;2277;51.626;7.516;2023-08-06T06:06:39;4.30;;;3.90;;
4529;SDS011;2277;51.626;7.516;2023-08-06T06:09:06;4.60;;;3.63;;
4529;SDS011;2277;51.626;7.516;2023-08-06T06:11:32;3.83;;;3.00;;
4529;SDS011;2277;51.626;7.516;2023-08-06T06:13:57;4.37;;;3.17;;
4529;SDS011;2277;51.626;7.516;2023-08-06T06:16:23;6.40;;;4.80;;
4529;SDS011;2277;51.626;7.516;2023-08-06T06:18:48;3.43;;;3.13;;
4529;SDS011;2277;51.626;7.516;2023-08-06T06:21:14;3.90;;;2.60;;
4529;SDS011;2277;51.626;7.516;2023-08-06T06:23:40;5.77;;;3.37;;
4529;SDS011;2277;51.626;7.516;2023-08-06T06:26:05;5.00;;;3.30;;
4529;SDS011;2277;51.626;7.516;2023-08-06T06:28:31;3.93;;;3.60;;
4529;SDS011;2277;51.626;7.516;2023-08-06T06:31:03;4.30;;;3.10;;
4529;SDS011;2277;51.626;7.516;2023-08-06T06:33:28;6.17;;;3.73;;
4529;SDS011;2277;51.626;7.516;2023-08-06T06:35:54;4.97;;;3.70;;
4529;SDS011;2277;51.626;7.516;2023-08-06T06:38:19;4.73;;;3.57;;
4529;SDS011;2277;51.626;7.516;2023-08-06T06:40:55;6.27;;;4.00;;
4529;SDS011;2277;51.626;7.516;2023-08-06T06:43:23;3.00;;;2.70;;
4529;SDS011;2277;51.626;7.516;2023-08-06T06:45:56;5.87;;;2.73;;
4529;SDS011;2277;51.626;7.516;2023-08-06T06:48:26;3.70;;;3.40;;
4529;SDS011;2277;51.626;7.516;2023-08-06T06:50:52;2.50;;;2.30;;
4529;SDS011;2277;51.626;7.516;2023-08-06T06:53:18;2.90;;;2.70;;
4529;SDS011;2277;51.626;7.516;2023-08-06T06:55:44;8.00;;;3.67;;
4529;SDS011;2277;51.626;7.516;2023-08-06T06:58:09;4.47;;;3.03;;
4529;SDS011;2277;51.626;7.516;2023-08-06T07:00:36;3.33;;;2.30;;
4529;SDS011;2277;51.626;7.516;2023-08-06T07:03:02;2.57;;;2.20;;
4529;SDS011;2277;51.626;7.516;2023-08-06T07:05:27;5.10;;;2.20;;
4529;SDS011;2277;51.626;7.516;2023-08-06T07:07:53;2.60;;;2.10;;
4529;SDS011;2277;51.626;7.516;2023-08-06T07:10:19;2.80;;;2.30;;
4529;SDS011;2277;51.626;7.516;2023-08-06T07:12:44;5.90;;;2.70;;
4529;SDS011;2277;51.626;7.516;2023-08-06T07:15:10;2.00;;;1.80;;
4529;SDS011;2277;51.626;7.516;2023-08-06T07:17:36;4.20;;;3.80;;
4529;SDS011;2277;51.626;7.516;2023-08-06T07:20:01;3.30;;;2.60;;
4529;SDS011;2277;51.626;7.516;2023-08-06T07:22:27;2.93;;;2.53;;
4529;SDS011;2277;51.626;7.516;2023-08-06T07:24:53;4.87;;;2.73;;
4529;SDS011;2277;51.626;7.516;2023-08-06T07:27:19;3.73;;;2.50;;
4529;SDS011;2277;51.626;7.516;2023-08-06T07:29:44;2.50;;;2.20;;
4529;SDS011;2277;51.626;7.516;2023-08-06T07:32:10;7.70;;;3.40;;
4529;SDS011;2277;51.626;7.516;2023-08-06T07:34:35;3.30;;;2.97;;
4529;SDS011;2277;51.626;7.516;2023-08-06T07:37:01;2.23;;;2.03;;
4529;SDS011;2277;51.626;7.516;2023-08-06T07:39:26;3.30;;;2.50;;
4529;SDS011;2277;51.626;7.516;2023-08-06T07:41:53;5.27;;;2.70;;
4529;SDS011;2277;51.626;7.516;2023-08-06T07:44:19;2.63;;;2.40;;
4529;SDS011;2277;51.626;7.516;2023-08-06T07:46:44;3.10;;;2.80;;
4529;SDS011;2277;51.626;7.516;2023-08-06T07:49:10;4.10;;;2.20;;
4529;SDS011;2277;51.626;7.516;2023-08-06T07:51:36;2.97;;;2.03;;
4529;SDS011;2277;51.626;7.516;2023-08-06T07:54:02;2.50;;;2.30;;
4529;SDS011;2277;51.626;7.516;2023-08-06T07:56:28;2.60;;;2.00;;
4529;SDS011;2277;51.626;7.516;2023-08-06T07:58:53;2.53;;;2.23;;
4529;SDS011;2277;51.626;7.516;2023-08-06T08:01:19;5.63;;;2.87;;
4529;SDS011;2277;51.626;7.516;2023-08-06T08:03:44;3.07;;;1.97;;
4529;SDS011;2277;51.626;7.516;2023-08-06T08:06:10;4.10;;;2.97;;
4529;SDS011;2277;51.626;7.516;2023-08-06T08:08:36;2.17;;;1.93;;
4529;SDS011;2277;51.626;7.516;2023-08-06T08:11:03;3.50;;;3.00;;
4529;SDS011;2277;51.626;7.516;2023-08-06T08:13:29;2.50;;;2.30;;
4529;SDS011;2277;51.626;7.516;2023-08-06T08:15:58;2.40;;;2.20;;
4529;SDS011;2277;51.626;7.516;2023-08-06T08:18:24;3.83;;;2.40;;
4529;SDS011;2277;51.626;7.516;2023-08-06T08:20:50;2.60;;;2.30;;
4529;SDS011;2277;51.626;7.516;2023-08-06T08:23:15;3.97;;;3.03;;
4529;SDS011;2277;51.626;7.516;2023-08-06T08:25:41;3.40;;;2.83;;
4529;SDS011;2277;51.626;7.516;2023-08-06T08:28:07;2.73;;;2.20;;
4529;SDS011;2277;51.626;7.516;2023-08-06T08:30:32;3.03;;;2.57;;
4529;SDS011;2277;51.626;7.516;2023-08-06T08:32:58;3.07;;;2.07;;
4529;SDS011;2277;51.626;7.516;2023-08-06T08:35:23;3.60;;;2.70;;
4529;SDS011;2277;51.626;7.516;2023-08-06T08:37:49;4.13;;;3.23;;
4529;SDS011;2277;51.626;7.516;2023-08-06T08:40:15;4.80;;;2.87;;
4529;SDS011;2277;51.626;7.516;2023-08-06T08:42:41;5.80;;;3.10;;
4529;SDS011;2277;51.626;7.516;2023-08-06T08:45:11;4.17;;;3.03;;
4529;SDS011;2277;51.626;7.516;2023-08-06T08:47:41;4.07;;;3.47;;
4529;SDS011;2277;51.626;7.516;2023-08-06T08:50:11;5.70;;;4.03;;
4529;SDS011;2277;51.626;7.516;2023-08-06T08:52:38;4.90;;;3.17;;
4529;SDS011;2277;51.626;7.516;2023-08-06T08:55:05;3.87;;;2.77;;
4529;SDS011;2277;51.626;7.516;2023-08-06T08:57:32;3.50;;;2.93;;
4529;SDS011;2277;51.626;7.516;2023-08-06T08:59:59;3.63;;;3.30;;
4529;SDS011;2277;51.626;7.516;2023-08-06T09:02:25;4.77;;;2.70;;
4529;SDS011;2277;51.626;7.516;2023-08-06T09:04:55;6.30;;;2.80;;
4529;SDS011;2277;51.626;7.516;2023-08-06T09:07:24;3.57;;;2.40;;
4529;SDS011;2277;51.626;7.516;2023-08-06T09:09:52;3.13;;;2.80;;
4529;SDS011;2277;51.626;7.516;2023-08-06T09:12:18;2.93;;;2.30;;
4529;SDS011;2277;51.626;7.516;2023-08-06T09:14:44;3.37;;;3.07;;
4529;SDS011;2277;51.626;7.516;2023-08-06T09:17:09;4.03;;;2.70;;
4529;SDS011;2277;51.626;7.516;2023-08-06T09:19:36;4.10;;;3.10;;
4529;SDS011;2277;51.626;7.516;2023-08-06T09:22:02;2.87;;;2.53;;
4529;SDS011;2277;51.626;7.516;2023-08-06T09:24:27;3.57;;;2.90;;
4529;SDS011;2277;51.626;7.516;2023-08-06T09:26:53;3.60;;;2.50;;
4529;SDS011;2277;51.626;7.516;2023-08-06T09:29:19;2.77;;;2.53;;
4529;SDS011;2277;51.626;7.516;2023-08-06T09:34:15;2.83;;;2.27;;
4529;SDS011;2277;51.626;7.516;2023-08-06T09:36:50;11.53;;;3.20;;
4529;SDS011;2277;51.626;7.516;2023-08-06T09:39:19;2.73;;;2.53;;
4529;SDS011;2277;51.626;7.516;2023-08-06T09:41:45;2.63;;;2.43;;
4529;SDS011;2277;51.626;7.516;2023-08-06T09:44:17;2.70;;;2.30;;
4529;SDS011;2277;51.626;7.516;2023-08-06T09:47:03;3.30;;;2.37;;
4529;SDS011;2277;51.626;7.516;2023-08-06T09:51:57;2.53;;;1.80;;
4529;SDS011;2277;51.626;7.516;2023-08-06T09:54:24;5.13;;;2.13;;
4529;SDS011;2277;51.626;7.516;2023-08-06T09:56:52;2.13;;;1.93;;
4529;SDS011;2277;51.626;7.516;2023-08-06T09:59:18;2.43;;;2.23;;
4529;SDS011;2277;51.626;7.516;2023-08-06T10:01:44;4.90;;;2.00;;
4529;SDS011;2277;51.626;7.516;2023-08-06T10:04:11;3.33;;;2.23;;
4529;SDS011;2277;51.626;7.516;2023-08-06T10:06:38;3.67;;;2.60;;
4529;SDS011;2277;51.626;7.516;2023-08-06T10:09:04;6.67;;;2.27;;
4529;SDS011;2277;51.626;7.516;2023-08-06T10:11:30;3.40;;;2.83;;
4529;SDS011;2277;51.626;7.516;2023-08-06T10:14:12;2.97;;;1.93;;
4529;SDS011;2277;51.626;7.516;2023-08-06T10:16:41;3.17;;;2.43;;
4529;SDS011;2277;51.626;7.516;2023-08-06T10:19:09;2.10;;;1.87;;
4529;SDS011;2277;51.626;7.516;2023-08-06T10:21:37;3.60;;;2.10;;
4529;SDS011;2277;51.626;7.516;2023-08-06T10:24:03;3.83;;;2.00;;
4529;SDS011;2277;51.626;7.516;2023-08-06T10:26:34;2.93;;;2.50;;
4529;SDS011;2277;51.626;7.516;2023-08-06T10:29:00;3.13;;;1.97;;
4529;SDS011;2277;51.626;7.516;2023-08-06T10:34:22;3.43;;;1.97;;
4529;SDS011;2277;51.626;7.516;2023-08-06T10:36:48;2.03;;;1.93;;
4529;SDS011;2277;51.626;7.516;2023-08-06T10:39:13;2.83;;;2.30;;
4529;SDS011;2277;51.626;7.516;2023-08-06T10:41:40;2.03;;;1.60;;
4529;SDS011;2277;51.626;7.516;2023-08-06T10:44:08;1.63;;;1.53;;
4529;SDS011;2277;51.626;7.516;2023-08-06T10:46:35;2.20;;;1.83;;
4529;SDS011;2277;51.626;7.516;2023-08-06T10:49:01;1.70;;;1.60;;
4529;SDS011;2277;51.626;7.516;2023-08-06T10:51:28;1.80;;;1.70;;
4529;SDS011;2277;51.626;7.516;2023-08-06T10:53:54;2.60;;;1.87;;
4529;SDS011;2277;51.626;7.516;2023-08-06T10:56:23;2.67;;;1.90;;
4529;SDS011;2277;51.626;7.516;2023-08-06T10:58:51;3.57;;;2.27;;
4529;SDS011;2277;51.626;7.516;2023-08-06T11:01:21;2.40;;;2.20;;
4529;SDS011;2277;51.626;7.516;2023-08-06T11:03:49;2.27;;;1.60;;
4529;SDS011;2277;51.626;7.516;2023-08-06T11:06:19;2.40;;;1.47;;
4529;SDS011;2277;51.626;7.516;2023-08-06T11:08:52;1.77;;;1.67;;
4529;SDS011;2277;51.626;7.516;2023-08-06T11:11:19;2.87;;;2.37;;
4529;SDS011;2277;51.626;7.516;2023-08-06T11:13:47;2.07;;;1.70;;
4529;SDS011;2277;51.626;7.516;2023-08-06T11:16:14;2.90;;;1.97;;
4529;SDS011;2277;51.626;7.516;2023-08-06T11:18:41;2.17;;;1.97;;
4529;SDS011;2277;51.626;7.516;2023-08-06T11:21:08;2.03;;;1.70;;
4529;SDS011;2277;51.626;7.516;2023-08-06T11:23:34;2.37;;;1.63;;
4529;SDS011;2277;51.626;7.516;2023-08-06T11:26:00;6.60;;;2.00;;
4529;SDS011;2277;51.626;7.516;2023-08-06T11:28:26;1.90;;;1.53;;
4529;SDS011;2277;51.626;7.516;2023-08-06T11:30:52;3.90;;;2.40;;
4529;SDS011;2277;51.626;7.516;2023-08-06T11:33:22;2.63;;;1.67;;
4529;SDS011;2277;51.626;7.516;2023-08-06T11:35:50;3.50;;;2.10;;
4529;SDS011;2277;51.626;7.516;2023-08-06T11:38:16;2.30;;;1.63;;
4529;SDS011;2277;51.626;7.516;2023-08-06T11:40:43;4.10;;;2.20;;
4529;SDS011;2277;51.626;7.516;2023-08-06T11:43:10;2.13;;;1.70;;
4529;SDS011;2277;51.626;7.516;2023-08-06T11:45:37;2.63;;;1.80;;
4529;SDS011;2277;51.626;7.516;2023-08-06T11:48:02;2.10;;;1.90;;
4529;SDS011;2277;51.626;7.516;2023-08-06T11:50:29;2.40;;;1.70;;
4529;SDS011;2277;51.626;7.516;2023-08-06T11:52:59;2.27;;;1.50;;
4529;SDS011;2277;51.626;7.516;2023-08-06T11:55:26;2.13;;;1.93;;
4529;SDS011;2277;51.626;7.516;2023-08-06T11:57:53;4.57;;;2.47;;
4529;SDS011;2277;51.626;7.516;2023-08-06T12:00:19;3.13;;;2.30;;
4529;SDS011;2277;51.626;7.516;2023-08-06T12:02:48;3.97;;;2.20;;
4529;SDS011;2277;51.626;7.516;2023-08-06T12:05:16;6.23;;;2.00;;
4529;SDS011;2277;51.626;7.516;2023-08-06T12:07:47;2.13;;;2.00;;
4529;SDS011;2277;51.626;7.516;2023-08-06T12:10:14;2.80;;;1.80;;
4529;SDS011;2277;51.626;7.516;2023-08-06T12:12:40;9.73;;;2.40;;
4529;SDS011;2277;51.626;7.516;2023-08-06T12:15:06;2.83;;;2.03;;
4529;SDS011;2277;51.626;7.516;2023-08-06T12:17:33;2.90;;;1.93;;
4529;SDS011;2277;51.626;7.516;2023-08-06T12:19:59;2.83;;;2.20;;
4529;SDS011;2277;51.626;7.516;2023-08-06T12:22:25;2.27;;;1.90;;
4529;SDS011;2277;51.626;7.516;2023-08-06T12:24:51;4.93;;;2.53;;
4529;SDS011;2277;51.626;7.516;2023-08-06T12:27:16;2.43;;;1.93;;
4529;SDS011;2277;51.626;7.516;2023-08-06T12:29:43;2.20;;;2.00;;
4529;SDS011;2277;51.626;7.516;2023-08-06T12:32:10;2.77;;;2.50;;
4529;SDS011;2277;51.626;7.516;2023-08-06T12:34:40;3.00;;;2.70;;
4529;SDS011;2277;51.626;7.516;2023-08-06T12:37:07;3.23;;;2.40;;
4529;SDS011;2277;51.626;7.516;2023-08-06T12:39:33;3.80;;;3.47;;
4529;SDS011;2277;51.626;7.516;2023-08-06T12:42:03;5.17;;;3.70;;
4529;SDS011;2277;51.626;7.516;2023-08-06T12:44:30;3.50;;;3.20;;
4529;SDS011;2277;51.626;7.516;2023-08-06T12:46:56;7.17;;;4.30;;
4529;SDS011;2277;51.626;7.516;2023-08-06T12:49:22;4.40;;;3.10;;
4529;SDS011;2277;51.626;7.516;2023-08-06T12:51:49;5.00;;;3.67;;
4529;SDS011;2277;51.626;7.516;2023-08-06T12:54:19;3.63;;;3.30;;
4529;SDS011;2277;51.626;7.516;2023-08-06T12:56:46;6.97;;;4.80;;
4529;SDS011;2277;51.626;7.516;2023-08-06T12:59:13;7.70;;;5.70;;
4529;SDS011;2277;51.626;7.516;2023-08-06T13:01:40;8.83;;;7.23;;
4529;SDS011;2277;51.626;7.516;2023-08-06T13:04:06;7.30;;;5.37;;
4529;SDS011;2277;51.626;7.516;2023-08-06T13:06:31;5.63;;;3.83;;
4529;SDS011;2277;51.626;7.516;2023-08-06T13:09:04;6.23;;;4.53;;
4529;SDS011;2277;51.626;7.516;2023-08-06T13:11:30;3.63;;;3.23;;
4529;SDS011;2277;51.626;7.516;2023-08-06T13:13:59;5.97;;;3.20;;
4529;SDS011;2277;51.626;7.516;2023-08-06T13:16:29;5.50;;;3.40;;
4529;SDS011;2277;51.626;7.516;2023-08-06T13:18:54;6.00;;;3.93;;
4529;SDS011;2277;51.626;7.516;2023-08-06T13:21:20;2.73;;;2.27;;
4529;SDS011;2277;51.626;7.516;2023-08-06T13:23:45;4.50;;;3.50;;
4529;SDS011;2277;51.626;7.516;2023-08-06T13:26:12;3.23;;;2.30;;
4529;SDS011;2277;51.626;7.516;2023-08-06T13:28:38;2.80;;;2.07;;
4529;SDS011;2277;51.626;7.516;2023-08-06T13:31:04;4.90;;;2.77;;
4529;SDS011;2277;51.626;7.516;2023-08-06T13:33:29;2.20;;;1.70;;
4529;SDS011;2277;51.626;7.516;2023-08-06T13:35:55;2.93;;;1.70;;
4529;SDS011;2277;51.626;7.516;2023-08-06T13:38:21;2.77;;;1.70;;
4529;SDS011;2277;51.626;7.516;2023-08-06T13:40:46;1.40;;;1.00;;
4529;SDS011;2277;51.626;7.516;2023-08-06T13:43:12;3.70;;;1.47;;
4529;SDS011;2277;51.626;7.516;2023-08-06T13:45:38;2.23;;;1.30;;
4529;SDS011;2277;51.626;7.516;2023-08-06T13:48:04;1.50;;;1.20;;
4529;SDS011;2277;51.626;7.516;2023-08-06T13:50:29;1.97;;;1.07;;
4529;SDS011;2277;51.626;7.516;2023-08-06T13:52:55;2.80;;;0.90;;
4529;SDS011;2277;51.626;7.516;2023-08-06T13:55:21;1.20;;;0.80;;
4529;SDS011;2277;51.626;7.516;2023-08-06T13:57:47;4.50;;;1.60;;
4529;SDS011;2277;51.626;7.516;2023-08-06T14:00:13;1.10;;;0.97;;
4529;SDS011;2277;51.626;7.516;2023-08-06T14:02:38;2.03;;;1.63;;
4529;SDS011;2277;51.626;7.516;2023-08-06T14:05:04;1.47;;;0.83;;
4529;SDS011;2277;51.626;7.516;2023-08-06T14:07:30;1.20;;;1.00;;
4529;SDS011;2277;51.626;7.516;2023-08-06T14:09:56;1.00;;;0.80;;
4529;SDS011;2277;51.626;7.516;2023-08-06T14:12:23;7.90;;;1.70;;
4529;SDS011;2277;51.626;7.516;2023-08-06T14:14:49;1.40;;;0.80;;
4529;SDS011;2277;51.626;7.516;2023-08-06T14:17:15;2.13;;;1.00;;
4529;SDS011;2277;51.626;7.516;2023-08-06T14:19:40;1.00;;;0.80;;
4529;SDS011;2277;51.626;7.516;2023-08-06T14:22:06;3.27;;;0.90;;
4529;SDS011;2277;51.626;7.516;2023-08-06T14:24:32;1.97;;;1.17;;
4529;SDS011;2277;51.626;7.516;2023-08-06T14:26:57;1.67;;;0.90;;
4529;SDS011;2277;51.626;7.516;2023-08-06T14:29:23;2.60;;;1.20;;
4529;SDS011;2277;51.626;7.516;2023-08-06T14:31:49;2.30;;;1.27;;
4529;SDS011;2277;51.626;7.516;2023-08-06T14:34:15;4.77;;;1.57;;
4529;SDS011;2277;51.626;7.516;2023-08-06T14:36:41;1.50;;;0.93;;
4529;SDS011;2277;51.626;7.516;2023-08-06T14:39:06;3.73;;;2.07;;
4529;SDS011;2277;51.626;7.516;2023-08-06T14:41:32;2.40;;;1.80;;
4529;SDS011;2277;51.626;7.516;2023-08-06T14:43:57;4.17;;;2.60;;
4529;SDS011;2277;51.626;7.516;2023-08-06T14:46:23;2.50;;;1.63;;
4529;SDS011;2277;51.626;7.516;2023-08-06T14:48:49;3.90;;;1.40;;
4529;SDS011;2277;51.626;7.516;2023-08-06T14:51:14;2.20;;;1.67;;
4529;SDS011;2277;51.626;7.516;2023-08-06T14:53:40;1.73;;;1.60;;
4529;SDS011;2277;51.626;7.516;2023-08-06T14:56:06;3.40;;;1.37;;
4529;SDS011;2277;51.626;7.516;2023-08-06T14:58:31;2.30;;;2.03;;
4529;SDS011;2277;51.626;7.516;2023-08-06T15:00:57;1.67;;;1.20;;
4529;SDS011;2277;51.626;7.516;2023-08-06T15:03:22;2.23;;;1.20;;
4529;SDS011;2277;51.626;7.516;2023-08-06T15:05:48;1.67;;;1.40;;
4529;SDS011;2277;51.626;7.516;2023-08-06T15:08:14;2.30;;;1.27;;
4529;SDS011;2277;51.626;7.516;2023-08-06T15:10:40;4.90;;;1.33;;
4529;SDS011;2277;51.626;7.516;2023-08-06T15:13:06;3.40;;;1.33;;
4529;SDS011;2277;51.626;7.516;2023-08-06T15:15:31;2.57;;;1.07;;
4529;SDS011;2277;51.626;7.516;2023-08-06T15:17:57;3.80;;;0.97;;
4529;SDS011;2277;51.626;7.516;2023-08-06T15:20:23;2.90;;;1.57;;
4529;SDS011;2277;51.626;7.516;2023-08-06T15:22:49;1.30;;;0.90;;
4529;SDS011;2277;51.626;7.516;2023-08-06T15:25:15;1.63;;;1.37;;
4529;SDS011;2277;51.626;7.516;2023-08-06T15:27:40;1.67;;;1.47;;